Time;durP1;ratioP1;P1;durP2;ratioP2;P2;SDS_P1;SDS_P2;PMS_P1;PMS_P2;Temp;Humidity;BMP_temperature;BMP_pressure;BME280_temperature;BME280_humidity;BME280_pressure;Samples;Min_cycle;Max_cycle;Signal;HPM_P1;HPM_P2
2023/01/02 00:01:12;;;;;;;11.37;2.27;;;27.30;53.70;;;;;;5041952;28;20183;-70
2023/01/02 00:03:39;;;;;;;8.17;2.00;;;27.50;52.70;;;;;;5044207;28;20196;-71
2023/01/02 00:06:07;;;;;;;8.07;1.93;;;27.50;53.30;;;;;;5048877;28;20233;-70
2023/01/02 00:08:34;;;;;;;7.57;2.10;;;27.30;53.60;;;;;;5043979;28;20203;-71
2023/01/02 00:11:02;;;;;;;9.87;2.33;;;27.30;54.10;;;;;;5049194;28;20550;-71
2023/01/02 00:13:29;;;;;;;8.47;1.80;;;27.30;54.40;;;;;;5048815;28;20183;-72
2023/01/02 00:15:56;;;;;;;8.80;2.03;;;27.40;54.30;;;;;;5048155;28;20634;-70
2023/01/02 00:18:24;;;;;;;7.13;2.10;;;27.40;54.10;;;;;;5051630;28;20185;-71
2023/01/02 00:20:51;;;;;;;6.70;1.83;;;27.30;54.40;;;;;;5048191;28;20176;-71
2023/01/02 00:23:18;;;;;;;8.30;2.07;;;27.30;54.70;;;;;;5052243;28;20191;-72
2023/01/02 00:25:48;;;;;;;9.63;2.10;;;27.60;53.70;;;;;;5052748;28;20176;-70
2023/01/02 00:28:15;;;;;;;7.70;1.77;;;27.60;53.00;;;;;;5052160;28;20545;-71
2023/01/02 00:30:43;;;;;;;7.17;2.23;;;27.10;54.70;;;;;;5054009;28;20187;-71
2023/01/02 00:33:10;;;;;;;7.33;1.90;;;27.40;53.90;;;;;;5047790;28;20241;-71
2023/01/02 00:35:38;;;;;;;8.20;2.20;;;27.30;53.90;;;;;;5047476;28;20226;-69
2023/01/02 00:38:06;;;;;;;10.23;2.53;;;27.30;54.00;;;;;;5048550;28;20568;-71
2023/01/02 00:40:34;;;;;;;6.80;1.60;;;27.80;52.40;;;;;;5048569;28;20215;-71
2023/01/02 00:43:01;;;;;;;5.87;1.87;;;27.70;51.70;;;;;;5050925;28;20201;-71
2023/01/02 00:45:28;;;;;;;5.27;1.50;;;27.80;49.90;;;;;;5050378;28;20199;-71
2023/01/02 00:47:56;;;;;;;7.87;1.80;;;28.00;49.20;;;;;;5053598;28;20192;-70
2023/01/02 00:50:23;;;;;;;5.77;1.80;;;27.70;50.40;;;;;;5049948;28;20191;-70
2023/01/02 00:52:50;;;;;;;5.07;1.50;;;27.80;49.70;;;;;;5052525;28;20259;-71
2023/01/02 00:55:18;;;;;;;6.73;1.60;;;27.60;51.70;;;;;;5045001;28;20716;-71
2023/01/02 00:57:45;;;;;;;5.40;1.53;;;27.80;51.20;;;;;;5045358;28;20181;-71
2023/01/02 01:00:13;;;;;;;7.50;1.53;;;27.70;50.50;;;;;;5044433;28;20605;-70
2023/01/02 01:02:40;;;;;;;7.63;1.40;;;27.70;51.00;;;;;;5046045;28;20192;-70
2023/01/02 01:05:08;;;;;;;5.43;1.57;;;27.90;50.70;;;;;;5070949;28;20549;-72
2023/01/02 01:07:35;;;;;;;6.97;1.63;;;27.80;50.30;;;;;;5048969;28;20184;-70
2023/01/02 01:10:03;;;;;;;6.23;1.60;;;27.80;50.20;;;;;;5050158;28;20557;-72
2023/01/02 01:12:31;;;;;;;5.50;1.50;;;27.70;49.50;;;;;;5051307;28;20192;-70
2023/01/02 01:14:58;;;;;;;7.60;1.63;;;27.60;49.50;;;;;;5043867;28;20651;-73
2023/01/02 01:17:26;;;;;;;6.53;1.60;;;27.40;49.30;;;;;;5045556;28;20176;-70
2023/01/02 01:19:53;;;;;;;4.17;1.23;;;27.70;49.90;;;;;;5051807;28;20669;-71
2023/01/02 01:22:21;;;;;;;6.57;1.43;;;27.70;49.40;;;;;;5050916;28;20544;-71
2023/01/02 01:24:48;;;;;;;5.20;1.30;;;27.50;49.90;;;;;;5047808;28;20643;-70
2023/01/02 01:27:15;;;;;;;3.70;1.40;;;27.80;48.70;;;;;;5048764;28;20233;-71
2023/01/02 01:29:42;;;;;;;4.73;1.50;;;27.90;47.50;;;;;;5045398;28;20273;-71
2023/01/02 01:32:10;;;;;;;4.73;1.60;;;27.90;46.60;;;;;;5049855;28;20689;-69
2023/01/02 01:34:37;;;;;;;4.63;1.30;;;27.80;48.40;;;;;;5047367;28;20266;-70
2023/01/02 01:37:04;;;;;;;5.97;1.70;;;27.80;46.20;;;;;;5045521;28;20180;-71
2023/01/02 01:39:32;;;;;;;6.50;1.50;;;27.90;47.40;;;;;;5047976;28;20417;-72
2023/01/02 01:42:00;;;;;;;8.20;1.40;;;28.20;46.50;;;;;;5047194;28;20223;-70
2023/01/02 01:44:50;;;;;;;8.13;1.87;;;27.70;48.30;;;;;;5051669;28;20187;-71
2023/01/02 01:47:36;;;;;;;6.47;1.33;;;28.10;49.10;;;;;;5043914;28;20525;-74
2023/01/02 01:50:09;;;;;;;5.77;1.40;;;28.30;48.70;;;;;;5047933;28;20207;-70
2023/01/02 01:52:43;;;;;;;6.17;1.60;;;28.10;48.50;;;;;;5045220;28;20706;-70
2023/01/02 01:55:19;;;;;;;7.17;2.30;;;27.70;50.50;;;;;;5048431;28;20202;-69
2023/01/02 01:57:58;;;;;;;6.73;2.33;;;28.00;50.10;;;;;;5044670;28;20653;-70
2023/01/02 02:00:26;;;;;;;5.80;1.57;;;28.30;48.80;;;;;;5045379;28;20185;-71
2023/01/02 02:02:58;;;;;;;8.07;2.10;;;28.10;49.70;;;;;;5046566;28;20525;-71
2023/01/02 02:05:29;;;;;;;6.90;1.77;;;28.10;50.10;;;;;;5048253;28;20207;-69
2023/01/02 02:08:14;;;;;;;7.13;1.67;;;28.30;49.10;;;;;;5053346;28;20172;-71
2023/01/02 02:10:42;;;;;;;12.77;2.90;;;28.30;50.40;;;;;;5049290;28;20183;-72
2023/01/02 02:13:09;;;;;;;11.57;2.07;;;28.00;50.00;;;;;;5049515;28;20187;-71
2023/01/02 02:16:05;;;;;;;4.80;1.40;;;28.30;51.00;;;;;;5045588;28;20188;-73
2023/01/02 02:18:54;;;;;;;8.33;2.03;;;28.10;48.70;;;;;;5045284;28;20226;-70
2023/01/02 02:21:27;;;;;;;5.83;1.60;;;28.10;48.90;;;;;;5049026;28;20716;-71
2023/01/02 02:24:06;;;;;;;8.17;3.17;;;28.00;49.40;;;;;;5040207;28;20540;-72
2023/01/02 02:26:54;;;;;;;11.20;3.03;;;28.10;50.40;;;;;;5046799;28;20199;-72
2023/01/02 02:29:49;;;;;;;4.93;1.57;;;28.30;49.50;;;;;;5043922;28;20216;-71
2023/01/02 02:33:15;;;;;;;8.40;1.67;;;28.10;49.90;;;;;;5047629;28;20213;-71
2023/01/02 02:36:11;;;;;;;6.60;1.47;;;28.00;50.30;;;;;;5061203;28;20207;-72
2023/01/02 02:38:59;;;;;;;8.97;1.70;;;28.40;50.30;;;;;;5053297;28;20187;-72
2023/01/02 02:41:34;;;;;;;5.73;1.60;;;28.30;50.80;;;;;;5053878;28;20292;-72
2023/01/02 02:44:18;;;;;;;6.30;1.90;;;28.40;49.40;;;;;;5045465;28;20183;-71
2023/01/02 02:46:49;;;;;;;7.37;1.53;;;28.10;51.70;;;;;;5048433;28;20262;-71
2023/01/02 02:49:32;;;;;;;6.60;1.90;;;28.20;51.20;;;;;;5044814;28;20234;-72
2023/01/02 02:52:02;;;;;;;7.40;1.40;;;28.00;50.80;;;;;;5047964;28;20227;-69
2023/01/02 02:54:51;;;;;;;6.20;1.93;;;28.00;50.20;;;;;;5047922;28;20184;-69
2023/01/02 02:57:20;;;;;;;8.20;1.57;;;28.30;50.10;;;;;;5048918;28;20176;-71
2023/01/02 02:59:47;;;;;;;5.90;1.50;;;28.50;50.10;;;;;;5044276;28;20184;-69
2023/01/02 03:02:19;;;;;;;5.53;1.73;;;28.90;49.70;;;;;;5048416;28;20177;-71
2023/01/02 03:04:56;;;;;;;6.23;1.60;;;28.50;50.00;;;;;;5048242;28;20666;-72
2023/01/02 03:07:31;;;;;;;7.70;2.03;;;28.50;49.80;;;;;;5046659;28;20188;-71
2023/01/02 03:10:55;;;;;;;4.70;1.50;;;28.40;50.90;;;;;;5048049;28;20327;-71
2023/01/02 03:13:49;;;;;;;7.47;1.80;;;28.90;47.30;;;;;;5022229;28;20279;-72
2023/01/02 03:16:32;;;;;;;6.80;1.87;;;28.70;49.70;;;;;;5023441;28;20220;-71
2023/01/02 03:19:07;;;;;;;11.63;2.30;;;29.10;50.30;;;;;;5041033;28;20188;-72
2023/01/02 03:21:51;;;;;;;5.03;1.53;;;29.40;49.70;;;;;;5039405;28;20621;-71
2023/01/02 03:24:21;;;;;;;5.70;1.70;;;29.60;47.60;;;;;;5043456;28;20215;-72
2023/01/02 03:26:54;;;;;;;6.37;1.57;;;29.40;48.30;;;;;;5040416;28;20654;-70
2023/01/02 03:29:38;;;;;;;6.67;1.77;;;28.90;49.90;;;;;;5050670;28;20242;-72
2023/01/02 03:32:12;;;;;;;6.60;2.00;;;29.00;49.50;;;;;;5050573;28;20182;-69
2023/01/02 03:34:41;;;;;;;7.27;1.60;;;29.20;50.00;;;;;;5048774;28;20663;-70
2023/01/02 03:37:13;;;;;;;8.33;1.70;;;29.40;49.00;;;;;;5049247;28;20650;-71
2023/01/02 03:39:48;;;;;;;7.83;1.73;;;29.30;49.90;;;;;;5049234;28;20647;-70
2023/01/02 03:42:27;;;;;;;6.53;1.60;;;29.10;50.20;;;;;;5045673;28;20179;-72
2023/01/02 03:45:00;;;;;;;4.53;1.50;;;29.40;46.30;;;;;;5044415;28;20233;-71
2023/01/02 03:47:39;;;;;;;5.50;1.47;;;29.50;46.30;;;;;;5046792;28;20176;-71
2023/01/02 03:50:20;;;;;;;9.03;2.00;;;28.90;48.00;;;;;;5046418;28;20208;-70
2023/01/02 03:52:47;;;;;;;6.93;1.70;;;28.80;50.40;;;;;;5045236;28;20303;-71
2023/01/02 03:55:16;;;;;;;8.03;1.40;;;28.80;51.40;;;;;;5037192;28;20294;-70
2023/01/02 03:58:04;;;;;;;5.77;1.50;;;29.40;48.30;;;;;;5046171;28;20184;-71
2023/01/02 04:00:52;;;;;;;6.10;1.33;;;29.80;48.60;;;;;;5044902;28;20196;-69
2023/01/02 04:03:38;;;;;;;5.05;1.50;;;29.90;46.90;;;;;;5042238;28;20226;-71
2023/01/02 04:06:14;;;;;;;5.63;1.53;;;29.70;46.30;;;;;;5051262;28;20196;-71
2023/01/02 04:08:50;;;;;;;5.10;1.77;;;29.40;48.90;;;;;;5043192;28;20222;-71
2023/01/02 04:11:19;;;;;;;8.55;1.70;;;29.40;49.80;;;;;;5048828;28;20524;-71
2023/01/02 04:13:55;;;;;;;11.25;1.75;;;29.20;48.80;;;;;;5051410;28;20187;-69
2023/01/02 04:16:26;;;;;;;10.47;1.50;;;29.30;48.70;;;;;;5043738;28;20183;-71
2023/01/02 04:19:00;;;;;;;4.85;1.20;;;29.40;50.10;;;;;;5042576;28;20663;-71
2023/01/02 04:21:30;;;;;;;4.88;1.00;;;29.30;48.20;;;;;;5047573;28;20238;-71
2023/01/02 04:24:15;;;;;;;7.67;2.03;;;29.80;48.10;;;;;;5044898;28;20307;-71
2023/01/02 04:26:51;;;;;;;6.27;1.70;;;29.30;49.10;;;;;;5049070;28;20714;-72
2023/01/02 04:29:19;;;;;;;4.63;2.03;;;29.20;50.50;;;;;;5048340;28;20286;-72
2023/01/02 04:32:11;;;;;;;9.07;2.77;;;29.90;48.90;;;;;;5045919;28;20188;-69
2023/01/02 04:34:40;;;;;;;9.88;3.40;;;29.70;48.30;;;;;;5049531;28;20191;-72
2023/01/02 04:37:07;;;;;;;7.83;2.53;;;29.80;48.20;;;;;;5048594;28;20230;-74
2023/01/02 04:39:36;;;;;;;8.20;1.83;;;29.80;45.20;;;;;;5042028;28;20238;-71
2023/01/02 04:42:03;;;;;;;9.73;1.80;;;29.60;43.90;;;;;;5046904;28;20176;-70
2023/01/02 04:44:31;;;;;;;6.77;2.50;;;29.80;43.80;;;;;;5045972;28;20639;-70
2023/01/02 04:46:58;;;;;;;7.60;1.63;;;30.10;43.90;;;;;;5062578;28;20234;-72
2023/01/02 04:49:26;;;;;;;6.28;1.15;;;29.70;45.20;;;;;;5043958;28;20212;-72
2023/01/02 04:51:53;;;;;;;4.80;1.33;;;30.00;44.80;;;;;;5046686;28;20263;-70
2023/01/02 04:54:20;;;;;;;3.70;1.30;;;29.60;46.00;;;;;;5049635;28;20202;-72
2023/01/02 04:56:47;;;;;;;6.63;1.43;;;28.90;45.40;;;;;;5044244;28;20199;-70
2023/01/02 04:59:15;;;;;;;2.70;1.20;;;28.80;46.60;;;;;;5040980;28;20656;-70
2023/01/02 05:01:42;;;;;;;4.47;1.60;;;28.80;47.70;;;;;;5047859;28;20541;-69
2023/01/02 05:04:09;;;;;;;4.23;1.80;;;29.30;47.20;;;;;;5048470;28;20176;-70
2023/01/02 05:06:36;;;;;;;9.07;1.63;;;29.50;46.90;;;;;;5051029;28;20187;-72
2023/01/02 05:09:04;;;;;;;4.57;1.60;;;29.60;46.60;;;;;;5050766;28;20308;-72
2023/01/02 05:11:31;;;;;;;5.63;1.47;;;29.30;47.30;;;;;;5047331;28;20760;-71
2023/01/02 05:13:58;;;;;;;5.63;1.37;;;29.20;47.20;;;;;;5048462;28;20192;-71
2023/01/02 05:16:26;;;;;;;4.00;1.20;;;29.30;48.50;;;;;;5053076;28;20600;-70
2023/01/02 05:18:53;;;;;;;2.93;1.30;;;29.80;48.10;;;;;;5054206;28;20176;-71
2023/01/02 05:24:06;;;;;;;7.47;1.67;;;29.10;48.60;;;;;;5048412;28;20184;-70
2023/01/02 05:26:33;;;;;;;6.10;1.50;;;29.00;50.10;;;;;;5048788;28;20191;-70
2023/01/02 05:29:01;;;;;;;6.27;1.67;;;29.10;49.10;;;;;;5046673;28;20654;-70
2023/01/02 05:31:28;;;;;;;8.10;1.53;;;29.10;49.20;;;;;;5050566;28;20183;-71
2023/01/02 05:33:57;;;;;;;5.97;1.40;;;29.20;48.70;;;;;;5051690;28;20244;-70
2023/01/02 05:36:26;;;;;;;5.57;1.57;;;29.10;49.20;;;;;;5053040;28;20569;-71
2023/01/02 05:38:53;;;;;;;5.80;1.40;;;29.10;49.50;;;;;;5048194;28;20199;-71
2023/01/02 05:41:22;;;;;;;6.20;1.57;;;28.90;50.70;;;;;;5045258;28;20184;-71
2023/01/02 05:43:49;;;;;;;8.60;2.00;;;27.80;53.50;;;;;;5052015;28;20245;-70
2023/01/02 05:46:20;;;;;;;5.70;1.57;;;27.90;53.90;;;;;;5042274;28;20235;-69
2023/01/02 05:48:48;;;;;;;5.87;1.50;;;27.50;55.50;;;;;;5044684;28;20223;-71
2023/01/02 05:51:17;;;;;;;6.23;1.80;;;27.30;56.10;;;;;;5052429;28;20232;-72
2023/01/02 05:53:44;;;;;;;10.90;1.93;;;27.00;56.70;;;;;;5048882;28;20672;-71
2023/01/02 05:56:12;;;;;;;8.67;1.60;;;27.20;56.60;;;;;;5041218;28;20314;-72
2023/01/02 05:58:42;;;;;;;7.63;2.00;;;28.00;54.90;;;;;;5047276;28;20253;-71
2023/01/02 06:01:17;;;;;;;8.97;1.87;;;28.20;54.80;;;;;;5048222;28;20175;-71
2023/01/02 06:03:56;;;;;;;7.13;1.73;;;28.00;55.30;;;;;;5043862;28;20178;-71
2023/01/02 06:06:33;;;;;;;10.67;1.80;;;28.20;55.20;;;;;;5051069;28;20207;-70
2023/01/02 06:09:01;;;;;;;7.00;1.50;;;27.80;56.70;;;;;;5052357;28;20690;-70
2023/01/02 06:11:30;;;;;;;6.77;1.60;;;27.80;56.80;;;;;;5051510;28;20192;-71
2023/01/02 06:13:57;;;;;;;8.00;1.80;;;27.90;54.50;;;;;;5052751;28;20211;-70
2023/01/02 06:16:25;;;;;;;8.13;2.03;;;28.10;54.80;;;;;;5052622;28;20538;-70
2023/01/02 06:18:53;;;;;;;8.03;1.77;;;28.10;54.60;;;;;;5050545;28;20231;-71
2023/01/02 06:21:21;;;;;;;11.07;2.13;;;27.80;55.60;;;;;;5048519;28;20679;-71
2023/01/02 06:23:53;;;;;;;8.57;1.80;;;28.00;55.90;;;;;;5051706;28;20666;-71
2023/01/02 06:26:21;;;;;;;6.37;1.60;;;28.00;55.20;;;;;;5051541;28;20227;-71
2023/01/02 06:28:54;;;;;;;9.10;2.03;;;27.80;56.00;;;;;;5048586;28;20302;-69
2023/01/02 06:31:24;;;;;;;9.63;2.40;;;27.10;58.20;;;;;;5049817;28;20232;-71
2023/01/02 06:33:58;;;;;;;7.37;2.20;;;26.50;59.70;;;;;;5045050;28;20279;-69
2023/01/02 06:36:29;;;;;;;11.17;2.70;;;26.50;60.40;;;;;;5050698;28;20179;-70
2023/01/02 06:38:57;;;;;;;13.43;2.57;;;26.40;61.30;;;;;;5047748;28;20259;-72
2023/01/02 06:41:25;;;;;;;13.87;2.57;;;26.50;61.60;;;;;;5049132;28;20176;-70
2023/01/02 06:43:52;;;;;;;11.03;2.37;;;26.50;61.20;;;;;;5047884;28;20211;-69
2023/01/02 06:46:21;;;;;;;16.43;3.03;;;26.30;62.10;;;;;;5052631;28;20183;-71
2023/01/02 06:48:49;;;;;;;10.17;2.20;;;26.20;61.70;;;;;;5052200;28;20207;-68
2023/01/02 06:51:22;;;;;;;11.13;2.27;;;26.00;62.50;;;;;;5050892;28;20270;-70
2023/01/02 06:53:50;;;;;;;13.37;2.60;;;25.80;62.70;;;;;;5049212;28;20198;-69
2023/01/02 06:56:19;;;;;;;12.37;2.40;;;25.70;64.00;;;;;;5052021;28;20214;-71
2023/01/02 06:58:47;;;;;;;9.93;2.57;;;25.80;62.30;;;;;;5049868;28;20179;-69
2023/01/02 07:01:20;;;;;;;9.40;2.63;;;25.70;62.10;;;;;;5045560;28;20183;-70
2023/01/02 07:03:47;;;;;;;11.00;3.70;;;25.70;63.40;;;;;;5042964;28;20260;-70
2023/01/02 07:06:18;;;;;;;10.63;3.93;;;25.70;63.60;;;;;;5044849;28;20266;-71
2023/01/02 07:08:46;;;;;;;12.47;5.47;;;25.70;64.10;;;;;;5049149;28;20196;-70
2023/01/02 07:11:16;;;;;;;10.27;3.10;;;25.80;64.70;;;;;;5044660;28;20278;-71
2023/01/02 07:13:45;;;;;;;17.53;3.27;;;25.50;65.60;;;;;;5046271;28;20184;-70
2023/01/02 07:16:14;;;;;;;12.10;2.77;;;25.40;66.40;;;;;;5050492;28;20172;-70
2023/01/02 07:18:42;;;;;;;13.37;2.67;;;25.30;66.90;;;;;;5047268;28;21850;-70
2023/01/02 07:21:11;;;;;;;11.43;2.60;;;25.30;66.20;;;;;;5049722;28;20191;-70
2023/01/02 07:23:40;;;;;;;14.30;3.40;;;25.00;67.00;;;;;;5050633;28;20182;-70
2023/01/02 07:26:08;;;;;;;11.73;2.83;;;24.90;68.10;;;;;;5049589;28;20713;-69
2023/01/02 07:28:36;;;;;;;16.17;2.77;;;24.80;68.90;;;;;;5047726;28;20224;-70
2023/01/02 07:31:06;;;;;;;12.77;2.77;;;24.70;69.10;;;;;;5048277;28;20179;-69
2023/01/02 07:33:34;;;;;;;11.47;2.53;;;24.60;69.60;;;;;;5050393;28;20195;-71
2023/01/02 07:36:04;;;;;;;15.70;3.20;;;24.50;70.40;;;;;;5051534;28;20534;-70
2023/01/02 07:38:32;;;;;;;13.43;3.37;;;24.50;70.60;;;;;;5049957;28;20202;-71
2023/01/02 07:41:00;;;;;;;13.03;2.53;;;24.40;71.10;;;;;;5051221;28;20192;-70
2023/01/02 07:43:27;;;;;;;14.00;2.80;;;24.30;70.80;;;;;;5050466;28;20263;-69
2023/01/02 07:45:54;;;;;;;11.07;3.30;;;24.30;71.50;;;;;;5051358;28;20208;-70
2023/01/02 07:48:22;;;;;;;16.43;3.30;;;24.10;71.70;;;;;;5048399;28;20327;-69
2023/01/02 07:50:49;;;;;;;17.73;3.30;;;24.30;71.30;;;;;;5048639;28;20263;-69
2023/01/02 07:53:16;;;;;;;14.30;2.87;;;24.30;71.90;;;;;;5042780;28;20234;-71
2023/01/02 07:55:44;;;;;;;14.73;3.13;;;24.30;71.80;;;;;;5049755;28;20199;-72
2023/01/02 07:58:11;;;;;;;12.77;3.10;;;24.00;72.10;;;;;;5048924;28;20213;-70
2023/01/02 08:00:38;;;;;;;12.10;3.03;;;24.00;72.20;;;;;;5047269;28;20179;-71
2023/01/02 08:03:05;;;;;;;13.03;2.67;;;23.90;72.70;;;;;;5048917;28;20631;-71
2023/01/02 08:05:34;;;;;;;14.93;3.00;;;23.90;72.50;;;;;;5050581;28;20258;-72
2023/01/02 08:08:01;;;;;;;13.37;2.80;;;24.00;72.70;;;;;;5050108;28;20184;-69
2023/01/02 08:10:28;;;;;;;11.87;2.63;;;23.90;73.10;;;;;;5049838;28;20214;-70
2023/01/02 08:12:58;;;;;;;18.53;3.70;;;23.90;72.90;;;;;;5050722;28;20175;-69
2023/01/02 08:15:26;;;;;;;13.73;3.03;;;23.80;73.40;;;;;;5048790;28;20263;-69
2023/01/02 08:17:55;;;;;;;18.00;3.70;;;23.80;73.90;;;;;;5049852;28;20226;-70
2023/01/02 08:20:23;;;;;;;9.87;3.00;;;23.90;73.90;;;;;;5045569;28;20179;-69
2023/01/02 08:22:50;;;;;;;15.97;3.53;;;23.80;74.20;;;;;;5045252;28;20271;-71
2023/01/02 08:25:18;;;;;;;17.43;3.30;;;23.80;74.40;;;;;;5049338;28;20551;-68
2023/01/02 08:27:45;;;;;;;17.63;3.20;;;23.70;74.60;;;;;;5047494;28;20185;-69
2023/01/02 08:30:12;;;;;;;12.77;3.20;;;23.70;74.80;;;;;;5050283;28;20216;-69
2023/01/02 08:32:41;;;;;;;16.50;3.53;;;23.70;74.90;;;;;;5049736;28;20175;-68
2023/01/02 08:35:09;;;;;;;15.50;3.10;;;23.70;75.30;;;;;;5048978;28;20207;-68
2023/01/02 08:37:36;;;;;;;15.63;3.50;;;23.60;75.30;;;;;;5053830;28;20176;-69
2023/01/02 08:40:04;;;;;;;11.17;3.30;;;23.60;75.70;;;;;;5045260;28;20199;-69
2023/01/02 08:42:32;;;;;;;16.63;3.13;;;23.50;75.70;;;;;;5054780;28;20191;-68
2023/01/02 08:44:59;;;;;;;19.37;4.00;;;23.50;75.70;;;;;;5051915;28;20712;-68
2023/01/02 08:47:26;;;;;;;19.00;3.00;;;23.40;75.90;;;;;;5048537;28;20180;-69
2023/01/02 08:49:53;;;;;;;22.33;4.07;;;23.30;76.10;;;;;;5048044;28;20303;-69
2023/01/02 08:52:21;;;;;;;22.33;3.93;;;23.30;76.30;;;;;;5050419;28;20238;-70
2023/01/02 08:54:48;;;;;;;12.73;3.13;;;23.20;76.60;;;;;;5052558;28;20634;-70
2023/01/02 08:57:15;;;;;;;15.87;2.80;;;23.20;76.80;;;;;;5053207;28;20237;-70
2023/01/02 08:59:43;;;;;;;14.37;3.13;;;23.20;76.70;;;;;;5051780;28;20183;-70
2023/01/02 09:02:13;;;;;;;20.73;3.47;;;23.10;76.20;;;;;;5047803;28;20260;-69
2023/01/02 09:04:41;;;;;;;21.60;3.93;;;23.10;76.50;;;;;;5050340;28;20184;-69
2023/01/02 09:07:09;;;;;;;15.33;3.37;;;23.10;76.40;;;;;;5051636;28;20250;-70
2023/01/02 09:09:36;;;;;;;22.53;4.23;;;23.10;76.60;;;;;;5054470;28;20219;-69
2023/01/02 09:12:04;;;;;;;22.10;4.50;;;23.10;76.90;;;;;;5051678;28;20187;-70
2023/01/02 09:14:31;;;;;;;21.50;3.50;;;23.00;76.90;;;;;;5049345;28;20669;-70
2023/01/02 09:16:58;;;;;;;14.10;3.23;;;23.10;77.20;;;;;;5046072;28;20575;-70
2023/01/02 09:19:26;;;;;;;21.43;4.00;;;23.00;76.90;;;;;;5048577;28;20907;-70
2023/01/02 09:21:54;;;;;;;21.53;3.90;;;23.00;77.10;;;;;;5053770;28;20184;-69
2023/01/02 09:24:21;;;;;;;20.80;4.17;;;23.00;77.20;;;;;;5050012;28;20329;-69
2023/01/02 09:26:48;;;;;;;18.93;4.10;;;23.00;77.10;;;;;;5050375;28;20183;-70
2023/01/02 09:29:16;;;;;;;22.67;3.83;;;23.00;77.10;;;;;;5050553;28;20211;-72
2023/01/02 09:31:43;;;;;;;19.63;3.77;;;22.90;76.80;;;;;;5050825;28;20180;-71
2023/01/02 09:34:11;;;;;;;17.73;3.27;;;22.90;77.00;;;;;;5046815;28;20185;-71
2023/01/02 09:36:38;;;;;;;16.77;3.50;;;22.90;77.00;;;;;;5050817;28;20180;-69
2023/01/02 09:39:06;;;;;;;18.30;3.57;;;22.90;77.10;;;;;;5052415;28;20183;-70
2023/01/02 09:41:38;;;;;;;18.03;3.90;;;22.90;76.80;;;;;;5052629;28;20188;-72
2023/01/02 09:44:20;;;;;;;24.33;4.00;;;22.90;76.80;;;;;;5052933;28;20186;-69
2023/01/02 09:46:53;;;;;;;17.43;3.83;;;22.90;77.30;;;;;;5047285;28;20180;-70
2023/01/02 09:49:35;;;;;;;17.93;4.20;;;22.90;77.10;;;;;;5049051;28;20215;-71
2023/01/02 09:52:03;;;;;;;19.93;3.40;;;22.90;77.10;;;;;;5049129;28;20262;-71
2023/01/02 09:54:32;;;;;;;17.20;4.27;;;22.90;77.10;;;;;;5044977;28;20215;-71
2023/01/02 09:57:24;;;;;;;21.50;3.80;;;22.90;77.00;;;;;;5049860;28;20188;-75
2023/01/02 10:00:02;;;;;;;20.93;4.00;;;22.90;77.40;;;;;;5050021;28;20291;-70
2023/01/02 10:02:59;;;;;;;20.33;4.20;;;22.80;77.40;;;;;;5044525;28;20642;-70
2023/01/02 10:05:51;;;;;;;21.57;4.67;;;22.80;77.70;;;;;;5045892;28;20195;-71
2023/01/02 10:08:58;;;;;;;19.97;4.43;;;22.80;77.50;;;;;;5051411;28;21892;-73
2023/01/02 10:12:00;;;;;;;16.30;3.80;;;22.80;77.70;;;;;;5014320;28;20579;-70
2023/01/02 10:14:53;;;;;;;22.77;4.10;;;22.80;78.00;;;;;;5048638;28;20275;-71
2023/01/02 10:17:22;;;;;;;20.30;3.70;;;22.80;78.10;;;;;;5045107;28;20295;-70
2023/01/02 10:19:49;;;;;;;13.27;2.90;;;22.90;78.10;;;;;;5052678;28;20191;-70
2023/01/02 10:22:21;;;;;;;21.60;4.60;;;22.80;78.20;;;;;;5048686;28;20233;-70
2023/01/02 10:24:59;;;;;;;22.70;4.43;;;22.80;78.30;;;;;;5043300;28;20827;-69
2023/01/02 10:27:33;;;;;;;19.27;4.33;;;22.80;78.50;;;;;;5050222;28;20183;-70
2023/01/02 10:30:18;;;;;;;21.53;4.17;;;22.80;78.70;;;;;;5048597;28;20246;-69
2023/01/02 10:33:20;;;;;;;18.67;4.00;;;22.80;78.90;;;;;;5047631;28;20272;-71
2023/01/02 10:36:03;;;;;;;20.80;4.53;;;22.80;79.00;;;;;;5027336;28;20222;-71
2023/01/02 10:38:38;;;;;;;20.07;4.47;;;22.80;79.00;;;;;;5050701;28;20273;-71
2023/01/02 10:41:06;;;;;;;19.40;3.73;;;22.80;79.10;;;;;;5049159;28;20262;-70
2023/01/02 10:43:35;;;;;;;19.93;3.87;;;22.80;79.20;;;;;;5049037;28;20542;-71
2023/01/02 10:46:04;;;;;;;14.67;4.20;;;22.80;79.30;;;;;;5048312;28;20176;-70
2023/01/02 10:48:36;;;;;;;22.47;4.10;;;22.80;79.20;;;;;;5046366;28;20334;-72
2023/01/02 10:51:11;;;;;;;28.07;4.83;;;22.70;79.40;;;;;;5048774;28;20215;-71
2023/01/02 10:53:38;;;;;;;19.37;3.60;;;22.70;79.60;;;;;;5050927;28;20187;-73
2023/01/02 10:56:26;;;;;;;16.73;4.10;;;22.70;79.60;;;;;;5047831;28;20693;-70
2023/01/02 10:58:53;;;;;;;16.37;3.83;;;22.70;79.60;;;;;;5048120;28;20176;-70
2023/01/02 11:01:22;;;;;;;22.93;4.60;;;22.70;79.50;;;;;;5050199;28;20184;-69
2023/01/02 11:04:11;;;;;;;20.30;3.77;;;22.80;79.60;;;;;;5046778;28;20207;-71
2023/01/02 11:07:00;;;;;;;15.30;4.10;;;22.70;79.10;;;;;;5046642;28;20585;-69
2023/01/02 11:09:37;;;;;;;18.47;3.93;;;22.80;79.20;;;;;;5042403;28;20214;-69
2023/01/02 11:12:07;;;;;;;23.37;3.67;;;22.80;79.10;;;;;;5049513;28;20253;-70
2023/01/02 11:14:36;;;;;;;19.47;3.93;;;22.80;79.00;;;;;;5048929;28;20223;-70
2023/01/02 11:17:21;;;;;;;15.23;3.93;;;22.80;79.00;;;;;;5045640;28;20265;-70
2023/01/02 11:19:51;;;;;;;20.23;4.00;;;22.80;78.90;;;;;;5041516;28;20199;-69
2023/01/02 11:22:22;;;;;;;15.73;4.20;;;22.80;79.30;;;;;;5051599;28;20204;-70
2023/01/02 11:25:00;;;;;;;26.13;3.87;;;22.80;79.00;;;;;;5042278;28;20334;-69
2023/01/02 11:27:41;;;;;;;15.83;3.30;;;22.70;79.00;;;;;;5042077;28;20180;-70
2023/01/02 11:30:28;;;;;;;22.50;4.40;;;22.70;78.60;;;;;;5051826;28;20242;-68
2023/01/02 11:33:26;;;;;;;20.83;3.90;;;22.80;78.70;;;;;;5044459;28;20240;-69
2023/01/02 11:35:55;;;;;;;23.70;4.20;;;22.80;78.70;;;;;;5045735;28;20231;-69
2023/01/02 11:38:47;;;;;;;18.87;3.73;;;22.80;78.90;;;;;;5048336;28;20263;-70
2023/01/02 11:44:50;;;;;;;18.37;3.77;;;22.80;78.70;;;;;;5049913;28;20194;-69
2023/01/02 11:47:18;;;;;;;15.63;3.40;;;22.80;78.60;;;;;;5043038;28;20638;-68
2023/01/02 11:49:48;;;;;;;20.00;4.23;;;22.70;78.70;;;;;;5048169;28;20212;-70
2023/01/02 11:52:27;;;;;;;16.00;3.67;;;22.70;78.90;;;;;;5048861;28;20223;-69
2023/01/02 11:55:06;;;;;;;17.43;3.30;;;22.70;79.00;;;;;;5039415;28;20180;-69
2023/01/02 11:57:42;;;;;;;18.50;3.87;;;22.60;79.00;;;;;;5042545;28;20218;-68
2023/01/02 12:00:16;;;;;;;16.63;3.53;;;22.70;78.90;;;;;;5050650;28;20262;-69
2023/01/02 12:02:47;;;;;;;22.00;5.13;;;22.70;78.80;;;;;;5042751;28;20178;-68
2023/01/02 12:05:36;;;;;;;20.87;4.37;;;22.80;78.70;;;;;;5047277;28;20179;-69
2023/01/02 12:08:16;;;;;;;17.30;3.77;;;22.70;78.80;;;;;;5043701;28;20203;-68
2023/01/02 12:11:04;;;;;;;14.17;3.40;;;22.70;78.60;;;;;;5047504;28;20199;-72
2023/01/02 12:14:00;;;;;;;18.23;3.60;;;22.70;78.80;;;;;;5046688;28;20190;-71
2023/01/02 12:17:21;;;;;;;17.13;3.57;;;22.70;78.80;;;;;;5046322;28;20184;-67
2023/01/02 12:20:04;;;;;;;19.97;4.10;;;22.70;78.70;;;;;;5039613;28;20204;-71
2023/01/02 12:23:07;;;;;;;17.23;3.57;;;22.60;78.50;;;;;;5054386;28;20180;-69
2023/01/02 12:25:34;;;;;;;17.23;3.77;;;22.60;78.80;;;;;;5049413;28;20203;-70
2023/01/02 12:28:07;;;;;;;20.63;4.07;;;22.60;78.60;;;;;;5053253;28;20172;-70
2023/01/02 12:30:44;;;;;;;18.47;3.77;;;22.60;78.60;;;;;;5054787;28;20272;-69
2023/01/02 12:33:43;;;;;;;22.50;3.90;;;22.60;78.90;;;;;;5051369;28;20199;-70
2023/01/02 12:36:51;;;;;;;20.33;4.03;;;22.60;78.80;;;;;;5029570;28;20196;-69
2023/01/02 12:39:48;;;;;;;19.73;3.83;;;22.60;78.80;;;;;;5050445;28;20188;-72
2023/01/02 12:42:56;;;;;;;20.97;4.17;;;22.50;78.40;;;;;;5051716;28;20273;-69
2023/01/02 12:45:43;;;;;;;15.17;3.13;;;22.50;78.80;;;;;;5046939;28;20192;-70
2023/01/02 12:48:20;;;;;;;15.37;3.70;;;22.50;78.80;;;;;;5052944;28;20203;-70
2023/01/02 12:51:13;;;;;;;25.37;3.83;;;22.60;78.80;;;;;;5048670;28;20183;-69
2023/01/02 12:54:16;;;;;;;21.17;3.73;;;22.50;78.80;;;;;;5051077;28;20261;-70
2023/01/02 12:57:07;;;;;;;26.07;4.00;;;22.60;78.80;;;;;;5045880;28;20179;-70
2023/01/02 13:00:01;;;;;;;15.97;3.87;;;22.50;79.00;;;;;;5048182;28;20191;-70
2023/01/02 13:03:00;;;;;;;20.27;3.43;;;22.50;79.00;;;;;;5051386;28;20527;-69
2023/01/02 13:05:39;;;;;;;25.13;4.40;;;22.50;78.90;;;;;;5052078;28;20266;-70
2023/01/02 13:08:26;;;;;;;16.23;4.10;;;22.50;78.90;;;;;;5047187;28;20705;-70
2023/01/02 13:10:56;;;;;;;18.67;3.67;;;22.40;79.00;;;;;;5048721;28;20199;-70
2023/01/02 13:13:29;;;;;;;19.20;4.23;;;22.40;79.00;;;;;;5053846;28;20184;-69
2023/01/02 13:16:01;;;;;;;18.00;4.17;;;22.40;79.20;;;;;;5045337;28;20176;-69
2023/01/02 13:18:37;;;;;;;19.57;3.33;;;22.30;79.00;;;;;;5046033;28;20658;-71
2023/01/02 13:21:09;;;;;;;22.23;4.30;;;22.40;79.00;;;;;;5052262;28;20184;-70